Time;durP1;ratioP1;P1;durP2;ratioP2;P2;SDS_P1;SDS_P2;PMS_P1;PMS_P2;Temp;Humidity;BMP_temperature;BMP_pressure;BME280_temperature;BME280_humidity;BME280_pressure;Samples;Min_cycle;Max_cycle;Signal;HPM_P1;HPM_P2
2023/07/28 00:01:18;;;;;;;0.10;0.10;;;18.10;99.90;;;;;;5042402;28;20069;-71
2023/07/28 00:03:44;;;;;;;3.42;0.60;;;18.10;99.90;;;;;;5046135;28;20650;-72
2023/07/28 00:06:09;;;;;;;0.00;0.00;;;18.10;99.90;;;;;;5036445;28;20075;-72
2023/07/28 00:08:35;;;;;;;1.65;0.52;;;18.10;99.90;;;;;;5020334;28;20133;-71
2023/07/28 00:11:01;;;;;;;0.00;0.00;;;18.10;99.90;;;;;;5040631;28;20464;-71
2023/07/28 00:13:26;;;;;;;0.00;0.00;;;18.10;99.90;;;;;;5043788;28;20049;-71
2023/07/28 00:15:52;;;;;;;0.28;0.28;;;18.10;99.90;;;;;;5039016;28;20041;-72
2023/07/28 00:18:18;;;;;;;0.00;0.00;;;18.10;99.90;;;;;;5041790;28;20487;-71
2023/07/28 00:20:44;;;;;;;1.25;1.00;;;18.10;99.90;;;;;;5048607;28;20045;-72
2023/07/28 00:23:09;;;;;;;0.50;0.50;;;18.10;99.90;;;;;;5047687;28;20098;-71
2023/07/28 00:25:35;;;;;;;0.57;0.52;;;18.10;99.90;;;;;;5027177;28;20049;-71
2023/07/28 00:28:00;;;;;;;0.20;0.20;;;18.10;99.90;;;;;;5046273;28;20044;-71
2023/07/28 00:30:26;;;;;;;0.15;0.15;;;18.10;99.90;;;;;;5030575;28;20385;-71
2023/07/28 00:32:52;;;;;;;6.30;2.38;;;18.10;99.90;;;;;;5028816;28;20083;-72
2023/07/28 00:35:17;;;;;;;0.10;0.10;;;18.10;99.90;;;;;;5040639;28;20121;-72
2023/07/28 00:37:43;;;;;;;0.45;0.45;;;18.10;99.90;;;;;;5038543;28;20076;-72
2023/07/28 00:40:09;;;;;;;1.90;0.98;;;18.10;99.90;;;;;;5045159;28;20053;-72
2023/07/28 00:42:34;;;;;;;2.88;0.47;;;18.10;99.90;;;;;;5039635;28;20045;-72
2023/07/28 00:45:00;;;;;;;0.10;0.10;;;18.10;99.90;;;;;;5042142;28;20084;-72
2023/07/28 00:47:26;;;;;;;0.30;0.30;;;18.10;99.90;;;;;;5034877;28;20049;-72
2023/07/28 00:49:51;;;;;;;0.10;0.10;;;18.10;99.90;;;;;;5049965;28;20056;-72
2023/07/28 00:52:17;;;;;;;0.13;0.13;;;18.10;99.90;;;;;;5039686;28;20048;-72
2023/07/28 00:54:43;;;;;;;0.00;0.00;;;18.10;99.90;;;;;;5030650;28;20057;-72
2023/07/28 00:57:08;;;;;;;0.65;0.50;;;18.10;99.90;;;;;;5023246;28;20041;-72
2023/07/28 00:59:34;;;;;;;0.10;0.10;;;18.10;99.90;;;;;;5037521;28;20049;-72
2023/07/28 01:02:00;;;;;;;0.25;0.13;;;18.10;99.90;;;;;;5048041;28;20045;-72
2023/07/28 01:04:25;;;;;;;0.00;0.00;;;18.10;99.90;;;;;;5044911;28;20045;-72
2023/07/28 01:07:10;;;;;;;0.00;0.00;;;18.10;99.90;;;;;;5047025;28;20045;-72
2023/07/28 01:09:48;;;;;;;0.00;0.00;;;18.10;99.90;;;;;;5039748;28;20052;-72
2023/07/28 01:12:14;;;;;;;0.00;0.00;;;18.00;99.90;;;;;;5049966;28;20128;-72
2023/07/28 01:14:39;;;;;;;0.43;0.43;;;18.10;99.90;;;;;;5049992;28;20175;-72
2023/07/28 01:17:05;;;;;;;1.25;0.28;;;18.10;99.90;;;;;;5025272;28;20056;-72
2023/07/28 01:19:31;;;;;;;0.03;0.03;;;18.10;99.90;;;;;;5041707;28;20044;-72
2023/07/28 01:22:30;;;;;;;0.22;0.22;;;18.10;99.90;;;;;;5038225;28;20404;-72
2023/07/28 01:25:11;;;;;;;0.10;0.10;;;18.10;99.90;;;;;;5029107;28;20057;-72
2023/07/28 01:27:37;;;;;;;0.28;0.28;;;18.10;99.90;;;;;;5044848;28;20072;-72
2023/07/28 01:30:03;;;;;;;0.00;0.00;;;18.00;99.90;;;;;;5041376;28;20075;-72
2023/07/28 01:32:29;;;;;;;0.28;0.28;;;18.00;99.90;;;;;;5038100;28;20049;-72
2023/07/28 01:34:54;;;;;;;0.00;0.00;;;18.10;99.90;;;;;;5032795;28;20048;-72
2023/07/28 01:37:20;;;;;;;0.00;0.00;;;18.10;99.90;;;;;;5044637;28;20438;-72
2023/07/28 01:39:46;;;;;;;0.08;0.08;;;18.00;99.90;;;;;;5049001;28;20052;-72
2023/07/28 01:42:11;;;;;;;1.05;0.98;;;18.10;99.90;;;;;;5042559;28;20067;-72
2023/07/28 01:44:37;;;;;;;0.10;0.10;;;18.00;99.90;;;;;;5047081;28;20060;-72
2023/07/28 01:47:03;;;;;;;0.00;0.00;;;18.10;99.90;;;;;;5040326;28;20095;-72
2023/07/28 01:49:28;;;;;;;0.00;0.00;;;18.00;99.90;;;;;;5048131;28;20116;-72
2023/07/28 01:51:54;;;;;;;30.38;1.65;;;18.00;99.90;;;;;;5038494;28;20127;-72
2023/07/28 01:54:19;;;;;;;0.00;0.00;;;18.00;99.90;;;;;;5047609;28;20049;-72
2023/07/28 01:56:45;;;;;;;0.00;0.00;;;18.00;99.90;;;;;;5046307;28;20044;-72
2023/07/28 01:59:11;;;;;;;0.03;0.03;;;18.00;99.90;;;;;;5040139;28;20128;-72
2023/07/28 02:01:36;;;;;;;0.00;0.00;;;18.00;99.90;;;;;;5046226;28;20052;-72
2023/07/28 02:04:02;;;;;;;0.20;0.20;;;18.00;99.90;;;;;;5043146;28;20057;-72
2023/07/28 02:06:29;;;;;;;0.03;0.03;;;18.00;99.90;;;;;;5039835;28;20037;-72
2023/07/28 02:08:54;;;;;;;0.00;0.00;;;18.00;99.90;;;;;;5034352;28;20045;-72
2023/07/28 02:11:20;;;;;;;0.68;0.68;;;18.00;99.90;;;;;;5041871;28;20037;-72
2023/07/28 02:13:46;;;;;;;0.00;0.00;;;18.00;99.90;;;;;;5038575;28;20045;-72
2023/07/28 02:16:11;;;;;;;0.00;0.00;;;18.00;99.90;;;;;;5044880;28;20388;-72
2023/07/28 02:18:37;;;;;;;0.20;0.20;;;18.00;99.90;;;;;;5046073;28;20034;-72
2023/07/28 02:21:02;;;;;;;0.00;0.00;;;18.00;99.90;;;;;;5040865;28;20064;-72
2023/07/28 02:23:28;;;;;;;0.47;0.47;;;18.00;99.90;;;;;;5021493;28;20037;-72
2023/07/28 02:25:53;;;;;;;0.00;0.00;;;18.00;99.90;;;;;;5039317;28;20041;-72
2023/07/28 02:28:19;;;;;;;0.00;0.00;;;18.00;99.90;;;;;;5047396;28;20041;-72
2023/07/28 02:30:45;;;;;;;0.00;0.00;;;18.00;99.90;;;;;;5049307;28;20072;-72
2023/07/28 02:33:10;;;;;;;0.38;0.38;;;17.90;99.90;;;;;;5027045;28;20136;-72
2023/07/28 02:35:36;;;;;;;0.00;0.00;;;18.00;99.90;;;;;;5037219;28;20176;-72
2023/07/28 02:38:02;;;;;;;0.28;0.20;;;18.00;99.90;;;;;;5043044;28;20103;-72
2023/07/28 02:40:27;;;;;;;0.00;0.00;;;18.00;99.90;;;;;;5046060;28;20369;-72
2023/07/28 02:42:53;;;;;;;0.00;0.00;;;17.90;99.90;;;;;;5036277;28;20040;-72
2023/07/28 02:45:19;;;;;;;0.00;0.00;;;17.90;99.90;;;;;;5043776;28;20099;-72
2023/07/28 02:47:45;;;;;;;0.10;0.10;;;17.90;99.90;;;;;;5040444;28;20049;-72
2023/07/28 02:50:10;;;;;;;1.35;0.73;;;17.90;99.90;;;;;;5024288;28;20053;-72
2023/07/28 02:52:36;;;;;;;0.05;0.05;;;17.90;99.90;;;;;;5040744;28;20040;-72
2023/07/28 02:55:02;;;;;;;0.00;0.00;;;18.00;99.90;;;;;;5039362;28;20037;-72
2023/07/28 02:57:27;;;;;;;0.45;0.45;;;17.90;99.90;;;;;;5019874;28;20058;-72
2023/07/28 02:59:53;;;;;;;0.10;0.10;;;17.90;99.90;;;;;;5026344;28;20060;-72
2023/07/28 03:02:19;;;;;;;0.00;0.00;;;17.90;99.90;;;;;;5041581;28;20468;-72
2023/07/28 03:04:44;;;;;;;0.10;0.10;;;18.00;99.90;;;;;;5036669;28;20476;-72
2023/07/28 03:07:10;;;;;;;0.10;0.10;;;18.00;99.90;;;;;;5045794;28;20163;-72
2023/07/28 03:09:35;;;;;;;0.10;0.10;;;18.00;99.90;;;;;;5037137;28;20044;-72
2023/07/28 03:12:01;;;;;;;0.00;0.00;;;18.00;99.90;;;;;;5035850;28;20038;-72
2023/07/28 03:14:28;;;;;;;0.00;0.00;;;18.00;99.90;;;;;;5046791;28;20041;-72
2023/07/28 03:16:53;;;;;;;0.00;0.00;;;17.90;99.90;;;;;;5038040;28;20048;-72
2023/07/28 03:19:19;;;;;;;0.00;0.00;;;17.90;99.90;;;;;;5035672;28;20404;-72
2023/07/28 03:21:45;;;;;;;1.02;0.38;;;17.90;99.90;;;;;;5043480;28;20041;-72
2023/07/28 03:24:10;;;;;;;0.00;0.00;;;18.00;99.90;;;;;;5040652;28;20051;-72
2023/07/28 03:26:36;;;;;;;0.30;0.30;;;17.90;99.90;;;;;;5039989;28;20045;-72
2023/07/28 03:29:01;;;;;;;0.00;0.00;;;17.90;99.90;;;;;;5041120;28;20037;-72
2023/07/28 03:31:27;;;;;;;0.00;0.00;;;17.90;99.90;;;;;;5024994;28;20060;-72
2023/07/28 03:33:53;;;;;;;0.00;0.00;;;17.90;99.90;;;;;;5040962;28;20400;-72
2023/07/28 03:36:19;;;;;;;9.75;1.55;;;17.90;99.90;;;;;;5043730;28;20045;-72
2023/07/28 03:38:45;;;;;;;0.00;0.00;;;17.90;99.90;;;;;;5033183;28;20044;-72
2023/07/28 03:41:10;;;;;;;0.00;0.00;;;17.90;99.90;;;;;;5037389;28;20045;-72
2023/07/28 03:43:36;;;;;;;0.00;0.00;;;17.90;99.90;;;;;;5045540;28;20119;-72
2023/07/28 03:46:02;;;;;;;0.00;0.00;;;17.90;99.90;;;;;;5043265;28;20469;-72
2023/07/28 03:48:27;;;;;;;0.00;0.00;;;17.90;99.90;;;;;;5045178;28;20044;-72
2023/07/28 03:50:53;;;;;;;0.35;0.35;;;17.90;99.90;;;;;;5038149;28;20516;-72
2023/07/28 03:53:18;;;;;;;0.00;0.00;;;17.90;99.90;;;;;;5038210;28;20102;-72
2023/07/28 03:55:44;;;;;;;0.00;0.00;;;17.90;99.90;;;;;;5038068;28;20594;-72
2023/07/28 03:58:09;;;;;;;0.00;0.00;;;17.90;99.90;;;;;;5034477;28;20056;-72
2023/07/28 04:00:35;;;;;;;0.00;0.00;;;17.90;99.90;;;;;;5035181;28;20140;-72
2023/07/28 04:03:01;;;;;;;0.00;0.00;;;17.90;99.90;;;;;;5048588;28;20052;-72
2023/07/28 04:05:26;;;;;;;0.00;0.00;;;17.90;99.90;;;;;;5042346;28;20044;-72
2023/07/28 04:07:52;;;;;;;0.00;0.00;;;17.90;99.90;;;;;;5032787;28;20053;-72
2023/07/28 04:10:17;;;;;;;0.00;0.00;;;17.90;99.90;;;;;;5031241;28;20064;-72
2023/07/28 04:12:43;;;;;;;0.20;0.20;;;17.90;99.90;;;;;;5046152;28;20491;-72
2023/07/28 04:15:09;;;;;;;0.20;0.15;;;17.90;99.90;;;;;;5038829;28;20068;-72
2023/07/28 04:17:35;;;;;;;0.00;0.00;;;17.90;99.90;;;;;;5040919;28;20452;-72
2023/07/28 04:20:00;;;;;;;0.00;0.00;;;17.90;99.90;;;;;;5045543;28;20063;-72
2023/07/28 04:22:26;;;;;;;0.00;0.00;;;17.90;99.90;;;;;;5043395;28;20066;-72
2023/07/28 04:24:53;;;;;;;0.25;0.25;;;17.90;99.90;;;;;;5046193;28;20039;-72
2023/07/28 04:27:19;;;;;;;0.00;0.00;;;17.90;99.90;;;;;;5029884;28;20072;-72
2023/07/28 04:29:45;;;;;;;0.03;0.03;;;17.90;99.90;;;;;;5043384;28;20675;-72
2023/07/28 04:32:10;;;;;;;0.00;0.00;;;17.90;99.90;;;;;;5051362;28;20064;-72
2023/07/28 04:34:36;;;;;;;0.13;0.13;;;17.90;99.90;;;;;;5044051;28;20427;-72
2023/07/28 04:37:02;;;;;;;0.20;0.10;;;17.90;99.90;;;;;;5038813;28;20060;-72
2023/07/28 04:39:27;;;;;;;0.10;0.10;;;17.90;99.90;;;;;;5047807;28;20391;-72
2023/07/28 04:41:53;;;;;;;0.15;0.15;;;17.90;99.90;;;;;;5050047;28;20041;-72
2023/07/28 04:44:20;;;;;;;0.00;0.00;;;17.90;99.90;;;;;;5049952;28;20432;-72
2023/07/28 04:46:48;;;;;;;0.00;0.00;;;17.90;99.90;;;;;;5035305;28;20079;-72
2023/07/28 04:49:14;;;;;;;0.00;0.00;;;17.90;99.90;;;;;;5016716;28;20049;-72
2023/07/28 04:51:40;;;;;;;0.90;0.45;;;17.90;99.90;;;;;;5040436;28;20416;-72
2023/07/28 04:54:05;;;;;;;0.52;0.52;;;17.90;99.90;;;;;;5049449;28;20488;-71
2023/07/28 04:56:31;;;;;;;0.10;0.10;;;17.90;99.90;;;;;;5049959;28;20075;-72
2023/07/28 04:58:58;;;;;;;0.00;0.00;;;17.90;99.90;;;;;;5027024;28;20457;-72
2023/07/28 05:01:24;;;;;;;2.28;0.35;;;17.90;99.90;;;;;;5037038;28;20128;-72
2023/07/28 05:03:50;;;;;;;3.03;0.40;;;17.90;99.90;;;;;;5048692;28;20136;-71
2023/07/28 05:06:15;;;;;;;0.10;0.10;;;17.90;99.90;;;;;;5052868;28;20052;-72
2023/07/28 05:08:41;;;;;;;0.00;0.00;;;17.90;99.90;;;;;;5043892;28;20029;-72
2023/07/28 05:11:07;;;;;;;0.20;0.20;;;17.90;99.90;;;;;;5045364;28;20041;-72
2023/07/28 05:13:32;;;;;;;0.70;0.47;;;18.00;99.90;;;;;;5040552;28;20039;-72
2023/07/28 05:15:58;;;;;;;5.65;0.50;;;17.90;99.90;;;;;;5029255;28;20037;-72
2023/07/28 05:18:23;;;;;;;0.00;0.00;;;18.00;99.90;;;;;;5033442;28;20403;-72
2023/07/28 05:20:49;;;;;;;0.00;0.00;;;17.90;99.90;;;;;;5042883;28;20042;-72
2023/07/28 05:23:14;;;;;;;0.00;0.00;;;18.00;99.90;;;;;;5042649;28;20045;-72
2023/07/28 05:25:41;;;;;;;0.15;0.15;;;18.00;99.90;;;;;;5042227;28;20045;-72
2023/07/28 05:28:06;;;;;;;0.55;0.30;;;18.00;99.90;;;;;;5038479;28;20079;-72
2023/07/28 05:30:32;;;;;;;0.00;0.00;;;18.00;99.90;;;;;;5031121;28;20076;-72
2023/07/28 05:32:57;;;;;;;0.00;0.00;;;18.00;99.90;;;;;;5041248;28;20050;-72
2023/07/28 05:35:23;;;;;;;0.00;0.00;;;18.00;99.90;;;;;;5042409;28;20061;-72
2023/07/28 05:37:49;;;;;;;1.35;0.65;;;18.00;99.90;;;;;;5046026;28;20049;-72
2023/07/28 05:40:14;;;;;;;0.00;0.00;;;18.00;99.90;;;;;;5050582;28;20373;-72
2023/07/28 05:42:40;;;;;;;0.43;0.43;;;18.00;99.90;;;;;;5022815;28;20048;-72
2023/07/28 05:45:06;;;;;;;0.00;0.00;;;18.00;99.90;;;;;;5045922;28;20530;-72
2023/07/28 05:47:32;;;;;;;0.03;0.03;;;18.00;99.90;;;;;;5042754;28;20122;-72
2023/07/28 05:49:57;;;;;;;0.32;0.32;;;18.00;99.90;;;;;;5044932;28;20492;-72
2023/07/28 05:52:23;;;;;;;0.00;0.00;;;18.00;99.90;;;;;;5028275;28;20060;-73
2023/07/28 05:54:49;;;;;;;0.10;0.10;;;18.10;99.90;;;;;;5048499;28;20045;-72
2023/07/28 05:57:14;;;;;;;0.03;0.03;;;18.10;99.90;;;;;;5041665;28;20036;-73
2023/07/28 05:59:40;;;;;;;0.00;0.00;;;18.10;99.90;;;;;;5042836;28;20132;-72
2023/07/28 06:02:06;;;;;;;0.00;0.00;;;18.10;99.90;;;;;;5049440;28;20040;-72
2023/07/28 06:04:31;;;;;;;0.00;0.00;;;18.10;99.90;;;;;;5044443;28;20068;-72
2023/07/28 06:06:57;;;;;;;0.43;0.43;;;18.10;99.90;;;;;;5024414;28;20419;-72
2023/07/28 06:09:23;;;;;;;0.32;0.32;;;18.10;99.90;;;;;;5044727;28;20106;-72
2023/07/28 06:11:48;;;;;;;0.00;0.00;;;18.20;99.90;;;;;;5049273;28;20033;-72
2023/07/28 06:14:14;;;;;;;0.00;0.00;;;18.20;99.90;;;;;;5039862;28;20041;-72
2023/07/28 06:16:39;;;;;;;0.45;0.45;;;18.20;99.90;;;;;;5042712;28;20494;-72
2023/07/28 06:19:05;;;;;;;0.00;0.00;;;18.20;99.90;;;;;;5043057;28;20057;-72
2023/07/28 06:21:31;;;;;;;0.10;0.10;;;18.20;99.90;;;;;;5044466;28;20056;-72
2023/07/28 06:23:57;;;;;;;0.00;0.00;;;18.20;99.90;;;;;;5026890;28;20770;-72
2023/07/28 06:26:22;;;;;;;0.00;0.00;;;18.20;99.90;;;;;;5041344;28;20041;-73
2023/07/28 06:28:48;;;;;;;0.15;0.15;;;18.20;99.90;;;;;;5036225;28;20112;-72
2023/07/28 06:31:13;;;;;;;0.15;0.15;;;18.20;99.90;;;;;;5038594;28;20048;-72
2023/07/28 06:33:39;;;;;;;0.08;0.08;;;18.20;99.90;;;;;;5029993;28;20036;-72
2023/07/28 06:36:05;;;;;;;0.10;0.10;;;18.20;99.90;;;;;;5038346;28;20045;-73
2023/07/28 06:38:30;;;;;;;0.10;0.10;;;18.10;99.90;;;;;;5043739;28;20045;-73
2023/07/28 06:40:56;;;;;;;0.03;0.03;;;18.20;99.90;;;;;;5038518;28;20045;-73
2023/07/28 06:43:22;;;;;;;0.00;0.00;;;18.20;99.90;;;;;;5020583;28;20045;-72
2023/07/28 06:45:51;;;;;;;0.13;0.13;;;18.20;99.90;;;;;;5024281;28;20049;-73
2023/07/28 06:48:16;;;;;;;1.38;0.52;;;18.20;99.90;;;;;;5041515;28;20184;-73
2023/07/28 06:50:42;;;;;;;0.00;0.00;;;18.10;99.90;;;;;;5040282;28;20128;-73
2023/07/28 06:53:08;;;;;;;0.10;0.10;;;18.10;99.90;;;;;;5029054;28;20052;-72
2023/07/28 06:55:33;;;;;;;0.43;0.20;;;18.20;99.90;;;;;;5037693;28;20041;-72
2023/07/28 06:57:59;;;;;;;0.20;0.20;;;18.10;99.90;;;;;;5046556;28;20037;-73
2023/07/28 07:00:25;;;;;;;0.00;0.00;;;18.10;99.90;;;;;;5035098;28;20107;-73
2023/07/28 07:02:51;;;;;;;0.10;0.10;;;18.10;99.90;;;;;;5025349;28;20042;-73
2023/07/28 07:05:16;;;;;;;0.25;0.25;;;18.10;99.90;;;;;;5045704;28;20090;-73
2023/07/28 07:07:42;;;;;;;0.20;0.20;;;18.10;99.90;;;;;;5046692;28;20116;-73
2023/07/28 07:10:08;;;;;;;0.25;0.25;;;18.20;99.90;;;;;;5036721;28;20045;-73
2023/07/28 07:12:35;;;;;;;0.30;0.30;;;18.10;99.90;;;;;;5025558;28;20052;-73
2023/07/28 07:15:01;;;;;;;1.10;0.70;;;18.20;99.90;;;;;;5031804;28;20045;-73
2023/07/28 07:17:27;;;;;;;0.35;0.35;;;18.20;99.90;;;;;;5039331;28;20507;-73
2023/07/28 07:19:52;;;;;;;0.38;0.38;;;18.20;99.90;;;;;;5021813;28;20124;-73
2023/07/28 07:22:18;;;;;;;0.10;0.10;;;18.30;99.90;;;;;;5023613;28;20113;-75
2023/07/28 07:24:43;;;;;;;0.10;0.10;;;18.30;99.90;;;;;;5033706;28;20045;-75
2023/07/28 07:27:10;;;;;;;0.17;0.15;;;18.30;99.90;;;;;;5040051;28;20037;-75
2023/07/28 07:29:40;;;;;;;0.10;0.10;;;18.30;99.90;;;;;;5033063;28;20438;-76
2023/07/28 07:32:06;;;;;;;4.95;0.90;;;18.30;99.90;;;;;;5034529;28;20037;-76
2023/07/28 07:34:33;;;;;;;0.85;0.85;;;18.40;99.90;;;;;;5030843;28;20044;-75
2023/07/28 07:36:59;;;;;;;0.32;0.32;;;18.40;99.90;;;;;;5039325;28;20086;-76
2023/07/28 07:39:25;;;;;;;0.20;0.20;;;18.40;99.90;;;;;;5019746;28;20049;-75
2023/07/28 07:41:50;;;;;;;0.17;0.17;;;18.40;99.90;;;;;;5043123;28;20033;-74
2023/07/28 07:44:16;;;;;;;0.22;0.22;;;18.50;99.90;;;;;;5039047;28;20477;-73
2023/07/28 07:46:42;;;;;;;0.20;0.20;;;18.40;99.90;;;;;;5036420;28;20045;-73
2023/07/28 07:49:07;;;;;;;0.25;0.25;;;18.50;99.90;;;;;;5043474;28;20048;-73
2023/07/28 07:51:34;;;;;;;0.00;0.00;;;18.50;99.90;;;;;;5048216;28;20103;-73
2023/07/28 07:54:01;;;;;;;0.00;0.00;;;18.60;99.90;;;;;;5039292;28;20044;-74
2023/07/28 07:56:27;;;;;;;0.15;0.15;;;18.60;99.90;;;;;;5045545;28;20067;-72
2023/07/28 07:58:53;;;;;;;0.22;0.22;;;18.60;99.90;;;;;;5038344;28;20045;-72
2023/07/28 08:01:18;;;;;;;0.13;0.13;;;18.60;99.90;;;;;;5035438;28;20109;-72
2023/07/28 08:03:44;;;;;;;0.38;0.20;;;18.60;99.90;;;;;;5046621;28;20411;-72
2023/07/28 08:06:11;;;;;;;0.00;0.00;;;18.70;99.90;;;;;;5034652;28;20060;-72
2023/07/28 08:08:37;;;;;;;0.10;0.10;;;18.70;99.90;;;;;;5034630;28;20041;-72
2023/07/28 08:11:02;;;;;;;0.10;0.10;;;18.70;99.90;;;;;;5048737;28;20055;-73
2023/07/28 08:13:28;;;;;;;0.00;0.00;;;18.70;99.90;;;;;;5040039;28;20044;-72
2023/07/28 08:15:54;;;;;;;0.00;0.00;;;18.70;99.90;;;;;;5039643;28;20045;-72
2023/07/28 08:18:19;;;;;;;0.10;0.10;;;18.70;99.90;;;;;;5044456;28;20073;-73
2023/07/28 08:20:45;;;;;;;0.00;0.00;;;18.80;99.90;;;;;;5028552;28;20066;-73
2023/07/28 08:23:11;;;;;;;0.08;0.08;;;18.80;99.90;;;;;;5039270;28;20037;-73
2023/07/28 08:25:37;;;;;;;0.38;0.38;;;18.90;99.90;;;;;;5033467;28;20045;-73
2023/07/28 08:28:02;;;;;;;0.00;0.00;;;19.00;99.90;;;;;;5037220;28;20045;-73
2023/07/28 08:30:28;;;;;;;0.20;0.20;;;19.10;99.90;;;;;;5039427;28;20094;-73
2023/07/28 08:32:54;;;;;;;0.00;0.00;;;19.30;99.90;;;;;;5036599;28;20060;-73
2023/07/28 08:35:19;;;;;;;0.10;0.10;;;19.30;99.90;;;;;;5046777;28;20553;-73
2023/07/28 08:37:45;;;;;;;0.10;0.10;;;19.40;99.90;;;;;;5042471;28;20053;-73
2023/07/28 08:40:12;;;;;;;0.00;0.00;;;19.30;99.90;;;;;;5048943;28;20049;-74
2023/07/28 08:42:39;;;;;;;0.30;0.30;;;19.40;99.90;;;;;;5043172;28;20038;-74
2023/07/28 08:45:06;;;;;;;0.00;0.00;;;19.40;99.90;;;;;;5026146;28;20432;-73
2023/07/28 08:47:32;;;;;;;0.00;0.00;;;19.40;99.90;;;;;;5041108;28;20067;-74
2023/07/28 08:49:58;;;;;;;0.10;0.10;;;19.40;99.90;;;;;;5045899;28;20044;-74
2023/07/28 08:52:24;;;;;;;0.28;0.13;;;19.40;99.90;;;;;;5025731;28;20051;-74
2023/07/28 08:54:50;;;;;;;0.47;0.45;;;19.50;99.90;;;;;;5037631;28;20041;-74
2023/07/28 08:57:16;;;;;;;0.10;0.10;;;19.80;99.90;;;;;;5045162;28;20044;-75
2023/07/28 08:59:47;;;;;;;0.00;0.00;;;19.80;99.90;;;;;;5022216;28;20045;-74
2023/07/28 09:02:15;;;;;;;0.00;0.00;;;19.70;99.90;;;;;;5031507;28;21481;-74
2023/07/28 09:04:42;;;;;;;0.10;0.10;;;19.70;99.90;;;;;;5018549;28;20129;-74
2023/07/28 09:07:07;;;;;;;0.22;0.22;;;19.80;99.90;;;;;;5050807;28;20543;-74
2023/07/28 09:09:33;;;;;;;0.00;0.00;;;19.90;99.90;;;;;;5043074;28;20141;-74
2023/07/28 09:12:00;;;;;;;0.00;0.00;;;19.90;99.90;;;;;;5041386;28;20069;-73
2023/07/28 09:14:26;;;;;;;0.00;0.00;;;20.20;99.90;;;;;;5047033;28;20094;-73
2023/07/28 09:16:52;;;;;;;0.45;0.20;;;20.30;99.90;;;;;;5041892;28;20044;-75
2023/07/28 09:19:20;;;;;;;0.22;0.22;;;20.30;99.90;;;;;;5046737;28;20044;-76
2023/07/28 09:21:58;;;;;;;0.35;0.22;;;20.20;99.90;;;;;;5048225;28;20054;-75
2023/07/28 09:24:33;;;;;;;0.22;0.22;;;20.20;99.90;;;;;;5043952;28;20365;-76
2023/07/28 09:27:00;;;;;;;0.00;0.00;;;20.20;99.90;;;;;;5034697;28;20063;-75
2023/07/28 09:29:30;;;;;;;0.05;0.05;;;20.20;99.90;;;;;;5049816;28;20086;-73
2023/07/28 09:32:06;;;;;;;0.10;0.10;;;20.30;99.90;;;;;;5028330;28;20064;-74
2023/07/28 09:34:34;;;;;;;0.05;0.05;;;20.40;99.90;;;;;;5025171;28;20037;-74
2023/07/28 09:37:00;;;;;;;0.13;0.13;;;20.40;99.90;;;;;;5032699;28;20427;-73
2023/07/28 09:39:27;;;;;;;0.38;0.38;;;20.60;99.90;;;;;;5028961;28;20124;-72
2023/07/28 09:41:57;;;;;;;0.00;0.00;;;20.70;99.90;;;;;;5039813;28;20041;-74
2023/07/28 09:44:22;;;;;;;0.00;0.00;;;20.80;99.90;;;;;;5047574;28;20049;-73
2023/07/28 09:46:56;;;;;;;0.00;0.00;;;20.80;99.90;;;;;;5035190;28;20370;-75
2023/07/28 09:49:45;;;;;;;0.10;0.08;;;20.90;99.90;;;;;;5023699;28;20041;-75
2023/07/28 09:52:14;;;;;;;0.00;0.00;;;20.70;99.90;;;;;;5035087;28;20050;-75
2023/07/28 09:54:41;;;;;;;0.05;0.05;;;20.60;99.90;;;;;;5028298;28;20048;-75
2023/07/28 09:57:20;;;;;;;0.00;0.00;;;21.00;99.90;;;;;;5042114;28;20523;-75
2023/07/28 09:59:49;;;;;;;0.00;0.00;;;21.10;99.90;;;;;;5046736;28;20114;-75
2023/07/28 10:02:15;;;;;;;0.60;0.60;;;21.10;99.90;;;;;;5045715;28;20057;-75
2023/07/28 10:04:41;;;;;;;0.00;0.00;;;21.30;99.90;;;;;;5038511;28;20144;-76
2023/07/28 10:07:08;;;;;;;0.85;0.65;;;21.80;99.90;;;;;;5043229;28;20495;-76
2023/07/28 10:09:34;;;;;;;0.00;0.00;;;21.60;99.90;;;;;;5034392;28;20050;-75
2023/07/28 10:12:03;;;;;;;0.45;0.45;;;21.80;99.90;;;;;;5024991;28;20543;-75
2023/07/28 10:14:31;;;;;;;0.10;0.10;;;22.20;99.90;;;;;;5044319;28;20575;-76
2023/07/28 10:17:01;;;;;;;0.10;0.10;;;22.50;99.90;;;;;;5038712;28;20041;-75
2023/07/28 10:19:39;;;;;;;0.10;0.10;;;22.50;99.90;;;;;;5038843;28;20045;-73
2023/07/28 10:22:10;;;;;;;0.00;0.00;;;22.50;99.90;;;;;;5040397;28;20140;-75
2023/07/28 10:24:58;;;;;;;0.90;0.35;;;22.50;99.90;;;;;;5042285;28;20155;-75
2023/07/28 10:27:38;;;;;;;0.10;0.10;;;22.70;99.90;;;;;;5034848;28;20407;-75
2023/07/28 10:30:11;;;;;;;0.10;0.10;;;23.00;99.90;;;;;;5035703;28;20060;-75
2023/07/28 10:32:45;;;;;;;0.20;0.20;;;22.80;99.90;;;;;;5048954;28;20045;-76
2023/07/28 10:35:14;;;;;;;0.00;0.00;;;22.90;99.90;;;;;;5050335;28;20080;-76
2023/07/28 10:37:45;;;;;;;0.05;0.05;;;22.80;99.90;;;;;;5042504;28;20044;-77
2023/07/28 10:40:32;;;;;;;0.10;0.10;;;22.60;99.90;;;;;;5045972;28;20044;-77
2023/07/28 10:43:01;;;;;;;2.30;0.57;;;22.60;99.90;;;;;;5027699;28;20086;-76
2023/07/28 10:45:28;;;;;;;0.35;0.22;;;22.50;99.90;;;;;;5047291;28;20964;-75
2023/07/28 10:47:55;;;;;;;2.83;0.20;;;22.70;99.90;;;;;;5025561;28;20061;-75
2023/07/28 10:50:26;;;;;;;0.57;0.45;;;22.70;99.90;;;;;;5041248;28;20057;-76
2023/07/28 10:52:52;;;;;;;0.00;0.00;;;22.90;99.90;;;;;;5045963;28;20198;-78
2023/07/28 10:55:22;;;;;;;0.32;0.20;;;22.90;99.90;;;;;;5029440;28;20108;-76
2023/07/28 10:57:50;;;;;;;0.63;0.43;;;23.00;99.90;;;;;;5034793;28;20057;-77
2023/07/28 11:00:21;;;;;;;0.00;0.00;;;23.00;99.90;;;;;;5020483;28;20111;-76
2023/07/28 11:02:55;;;;;;;0.20;0.20;;;23.20;99.90;;;;;;5030739;28;20049;-76
2023/07/28 11:05:23;;;;;;;0.00;0.00;;;23.10;99.90;;;;;;5039313;28;20480;-75
2023/07/28 11:07:51;;;;;;;0.00;0.00;;;23.00;99.90;;;;;;5044981;28;20045;-74
2023/07/28 11:10:18;;;;;;;0.00;0.00;;;23.10;99.90;;;;;;5020024;28;20045;-76
2023/07/28 11:12:48;;;;;;;0.03;0.03;;;23.10;99.90;;;;;;5029072;28;20045;-75
2023/07/28 11:15:15;;;;;;;0.20;0.20;;;23.20;99.90;;;;;;5049486;28;20060;-76
2023/07/28 11:17:49;;;;;;;0.43;0.43;;;23.30;99.90;;;;;;5040170;28;20057;-75
2023/07/28 11:20:23;;;;;;;0.08;0.08;;;23.40;99.90;;;;;;5045915;28;20045;-75
2023/07/28 11:23:04;;;;;;;0.00;0.00;;;23.50;99.90;;;;;;5046661;28;20056;-76
2023/07/28 11:25:32;;;;;;;0.00;0.00;;;23.30;99.90;;;;;;5033820;28;20045;-75
2023/07/28 11:28:00;;;;;;;0.00;0.00;;;23.20;99.90;;;;;;5030170;28;21204;-75
2023/07/28 11:30:26;;;;;;;0.00;0.00;;;23.20;99.90;;;;;;5025835;28;20451;-76
2023/07/28 11:32:52;;;;;;;0.10;0.10;;;23.40;99.90;;;;;;5038556;28;20065;-75
2023/07/28 11:35:22;;;;;;;0.30;0.30;;;23.60;99.90;;;;;;5036705;28;20037;-75
2023/07/28 11:37:52;;;;;;;0.00;0.00;;;23.80;99.90;;;;;;5039978;28;20056;-74
2023/07/28 11:40:20;;;;;;;0.00;0.00;;;24.10;99.90;;;;;;5044832;28;20392;-75
2023/07/28 11:42:49;;;;;;;0.15;0.05;;;24.10;99.90;;;;;;5036144;28;20041;-75
2023/07/28 11:45:22;;;;;;;0.00;0.00;;;24.20;99.90;;;;;;5038745;28;20045;-75
2023/07/28 11:48:03;;;;;;;1.55;0.75;;;24.30;99.90;;;;;;5038573;28;20041;-74
2023/07/28 11:50:40;;;;;;;0.10;0.10;;;24.10;99.90;;;;;;5036185;28;20068;-75
2023/07/28 11:53:06;;;;;;;0.00;0.00;;;24.00;99.90;;;;;;5037045;28;20037;-76
2023/07/28 11:55:34;;;;;;;0.98;0.30;;;23.90;99.90;;;;;;5032495;28;20052;-77
2023/07/28 11:58:04;;;;;;;0.10;0.10;;;23.80;99.90;;;;;;5017200;28;20128;-76
2023/07/28 12:00:34;;;;;;;0.00;0.00;;;23.90;99.90;;;;;;5019930;28;20519;-76
2023/07/28 12:03:04;;;;;;;0.70;0.20;;;24.00;99.90;;;;;;5037659;28;20044;-75
2023/07/28 12:05:31;;;;;;;0.00;0.00;;;23.90;99.90;;;;;;5022606;28;20051;-75
2023/07/28 12:07:56;;;;;;;0.00;0.00;;;24.10;99.90;;;;;;5041993;28;20043;-77
2023/07/28 12:10:24;;;;;;;0.00;0.00;;;24.40;99.90;;;;;;5038188;28;20038;-75
2023/07/28 12:12:50;;;;;;;0.35;0.13;;;24.40;99.90;;;;;;5036483;28;20041;-76
2023/07/28 12:15:23;;;;;;;0.30;0.30;;;24.50;99.90;;;;;;5036503;28;20124;-75
2023/07/28 12:18:16;;;;;;;0.10;0.10;;;24.30;99.90;;;;;;5016537;28;20038;-77
2023/07/28 12:20:50;;;;;;;0.10;0.10;;;24.80;99.90;;;;;;5024879;28;20049;-75
2023/07/28 12:23:17;;;;;;;0.05;0.05;;;24.90;99.90;;;;;;5025514;28;20045;-77
2023/07/28 12:25:44;;;;;;;0.00;0.00;;;24.70;99.90;;;;;;5040293;28;20064;-73
2023/07/28 12:28:10;;;;;;;0.00;0.00;;;25.00;99.90;;;;;;5035608;28;20514;-76
2023/07/28 12:30:36;;;;;;;0.00;0.00;;;25.00;99.90;;;;;;5035360;28;20041;-75
2023/07/28 12:33:03;;;;;;;0.00;0.00;;;24.80;99.90;;;;;;5040304;28;20042;-75
2023/07/28 12:35:31;;;;;;;0.08;0.08;;;25.00;99.90;;;;;;5037424;28;20127;-75
2023/07/28 12:38:01;;;;;;;0.00;0.00;;;24.90;99.90;;;;;;5034032;28;20042;-75
2023/07/28 12:40:30;;;;;;;0.00;0.00;;;25.30;99.90;;;;;;5043071;28;20388;-74
2023/07/28 12:42:56;;;;;;;0.20;0.20;;;25.70;99.90;;;;;;5042784;28;20131;-76
2023/07/28 12:45:25;;;;;;;0.00;0.00;;;25.90;99.90;;;;;;5047440;28;20135;-76
2023/07/28 12:47:52;;;;;;;0.00;0.00;;;25.80;99.90;;;;;;5042242;28;20476;-76